Cubero, New Mexico
Current Conditions -  °F | °C
As of 11:15 PM on Sunday 25 Jan 2015 (Local Time) from KGNT Reporting Station
Clear Clear  
Wind Chill: 18°   Ceiling: Unl
Heat Index: 27°   Visibility: 10mi
Dew Point: 24°   Wind: 8mph
Humidity: 89%   Direction: 280°W
Pressure: 30.38"   Gusts: NA
Location:  35.08°N, 107.52°W
Report Text: KGNT 260615Z AUTO 28007KT 10SM CLR M03/M05 A3038 RMK AO2 T10301046
Loading
Personal Weather Stations






























Interactive Weather Map New forecast layout! Learn more

10-Day Weather Forecast

Advertisements
Track Severe Weather on mobile